createdAt,value
2022-10-01T00:02:14.124Z,12.60
2022-10-01T00:04:43.387Z,12.60
2022-10-01T00:07:15.477Z,12.60
2022-10-01T00:09:46.110Z,12.60
2022-10-01T00:12:16.909Z,12.60
2022-10-01T00:14:45.936Z,12.60
2022-10-01T00:17:15.001Z,12.60
2022-10-01T00:19:44.205Z,12.50
2022-10-01T00:22:13.243Z,12.60
2022-10-01T00:24:42.437Z,12.50
2022-10-01T00:27:13.016Z,12.50
2022-10-01T00:29:45.516Z,12.50
2022-10-01T00:32:14.677Z,12.40
2022-10-01T00:34:43.725Z,12.40
2022-10-01T00:37:13.073Z,12.40
2022-10-01T00:39:42.195Z,12.40
2022-10-01T00:42:22.462Z,12.30
2022-10-01T00:44:52.148Z,12.30
2022-10-01T00:47:28.512Z,12.30
2022-10-01T00:50:02.089Z,12.30
2022-10-01T00:52:34.349Z,12.30
2022-10-01T00:55:08.436Z,12.30
2022-10-01T00:57:39.949Z,12.30
2022-10-01T01:00:12.428Z,12.30
2022-10-01T01:02:42.159Z,12.30
2022-10-01T01:05:12.365Z,12.30
2022-10-01T01:07:46.280Z,12.30
2022-10-01T01:10:17.709Z,12.30
2022-10-01T01:13:03.156Z,12.30
2022-10-01T01:15:37.979Z,12.30
2022-10-01T01:18:11.876Z,12.30
2022-10-01T01:20:56.444Z,12.30
2022-10-01T01:23:58.671Z,12.30
2022-10-01T01:26:35.313Z,12.30
2022-10-01T01:29:12.519Z,12.30
2022-10-01T01:31:46.588Z,12.30
2022-10-01T01:34:20.288Z,12.30
2022-10-01T01:37:01.479Z,12.30
2022-10-01T01:39:35.001Z,12.30
2022-10-01T01:42:10.076Z,12.20
2022-10-01T01:44:44.286Z,12.20
2022-10-01T01:47:15.369Z,12.20
2022-10-01T01:49:45.134Z,12.20
2022-10-01T01:52:16.198Z,12.10
2022-10-01T01:54:47.877Z,12.10
2022-10-01T01:57:19.373Z,12.10
2022-10-01T01:59:50.037Z,12.10
2022-10-01T02:02:24.186Z,12.00
2022-10-01T02:04:56.757Z,12.00
2022-10-01T02:07:45.556Z,12.10
2022-10-01T02:10:25.317Z,12.10
2022-10-01T02:13:09.075Z,12.10
2022-10-01T02:15:49.680Z,12.10
2022-10-01T02:18:26.369Z,12.10
2022-10-01T02:21:04.278Z,12.00
2022-10-01T02:23:39.658Z,12.00
2022-10-01T02:26:16.768Z,12.00
2022-10-01T02:28:47.874Z,12.00
2022-10-01T02:31:21.096Z,12.00
2022-10-01T02:33:51.790Z,12.00
2022-10-01T02:36:22.368Z,12.00
2022-10-01T02:38:52.947Z,12.00
2022-10-01T02:41:26.445Z,11.90
2022-10-01T02:43:59.144Z,11.90
2022-10-01T02:46:33.683Z,11.90
2022-10-01T02:49:03.132Z,11.90
2022-10-01T02:51:41.326Z,11.90
2022-10-01T02:54:15.534Z,11.90
2022-10-01T02:57:02.560Z,11.90
2022-10-01T02:59:31.645Z,11.90
2022-10-01T03:02:02.361Z,12.00
2022-10-01T03:04:31.373Z,11.90
2022-10-01T03:07:04.062Z,12.00
2022-10-01T03:09:33.298Z,11.90
2022-10-01T03:12:03.352Z,11.80
2022-10-01T03:14:32.572Z,11.90
2022-10-01T03:17:02.925Z,11.90
2022-10-01T03:19:31.902Z,11.90
2022-10-01T03:22:00.807Z,11.90
2022-10-01T03:24:30.226Z,11.80
2022-10-01T03:26:59.450Z,11.80
2022-10-01T03:29:28.893Z,11.80
2022-10-01T03:31:57.891Z,11.70
2022-10-01T03:34:28.582Z,11.70
2022-10-01T03:36:57.786Z,11.70
2022-10-01T03:39:26.822Z,11.70
2022-10-01T03:41:55.794Z,11.70
2022-10-01T03:44:24.891Z,11.80
2022-10-01T03:46:53.873Z,11.70
2022-10-01T03:49:23.112Z,11.80
2022-10-01T03:51:53.783Z,11.70
2022-10-01T03:54:22.766Z,11.70
2022-10-01T03:56:52.505Z,11.70
2022-10-01T03:59:21.452Z,11.60
2022-10-01T04:01:50.705Z,11.60
2022-10-01T04:04:19.708Z,11.60
2022-10-01T04:06:48.693Z,11.50
2022-10-01T04:09:19.432Z,11.50
2022-10-01T04:11:48.553Z,11.50
2022-10-01T04:14:17.570Z,11.50
2022-10-01T04:16:46.616Z,11.40
2022-10-01T04:19:15.662Z,11.40
2022-10-01T04:21:44.595Z,11.40
2022-10-01T04:24:13.547Z,11.40
2022-10-01T04:26:43.905Z,11.40
2022-10-01T04:29:12.952Z,11.30
2022-10-01T04:31:41.967Z,11.30
2022-10-01T04:34:11.208Z,11.30
2022-10-01T04:36:40.257Z,11.30
2022-10-01T04:39:09.211Z,11.20
2022-10-01T04:41:39.170Z,11.20
2022-10-01T04:44:10.600Z,11.20
2022-10-01T04:46:40.168Z,11.10
2022-10-01T04:49:09.137Z,11.00
2022-10-01T04:51:38.046Z,11.00
2022-10-01T04:54:07.032Z,10.90
2022-10-01T04:56:36.137Z,10.90
2022-10-01T04:59:05.174Z,10.90
2022-10-01T05:01:35.935Z,10.90
2022-10-01T05:04:05.338Z,10.90
2022-10-01T05:06:34.476Z,10.90
2022-10-01T05:09:03.982Z,10.80
2022-10-01T05:11:34.982Z,10.80
2022-10-01T05:14:04.277Z,10.80
2022-10-01T05:16:34.988Z,10.80
2022-10-01T05:19:04.219Z,10.90
2022-10-01T05:21:33.515Z,10.90
2022-10-01T05:24:03.008Z,10.90
2022-10-01T05:26:32.755Z,11.00
2022-10-01T05:29:01.938Z,11.10
2022-10-01T05:31:31.020Z,11.10
2022-10-01T05:34:01.503Z,11.20
2022-10-01T05:36:30.446Z,11.30
2022-10-01T05:38:59.599Z,11.30
2022-10-01T05:41:28.778Z,11.30
2022-10-01T05:43:57.889Z,11.30
2022-10-01T05:46:27.142Z,11.30
2022-10-01T05:48:56.363Z,11.30
2022-10-01T05:51:27.000Z,11.40
2022-10-01T05:53:56.479Z,11.40
2022-10-01T05:56:25.639Z,11.50
2022-10-01T05:58:55.110Z,11.60
2022-10-01T06:01:24.502Z,11.60
2022-10-01T06:03:54.191Z,11.70
2022-10-01T06:06:24.125Z,11.70
2022-10-01T06:08:55.329Z,11.70
2022-10-01T06:11:25.233Z,11.90
2022-10-01T06:13:54.333Z,11.90
2022-10-01T06:16:23.396Z,12.00
2022-10-01T06:18:57.609Z,12.00
2022-10-01T06:21:27.124Z,12.00
2022-10-01T06:23:57.696Z,12.10
2022-10-01T06:26:27.084Z,12.10
2022-10-01T06:28:56.891Z,12.20
2022-10-01T06:31:26.118Z,12.20
2022-10-01T06:33:55.195Z,12.30
2022-10-01T06:36:24.383Z,12.60
2022-10-01T06:38:53.489Z,12.70
2022-10-01T06:41:24.007Z,13.00
2022-10-01T06:43:53.078Z,13.50
2022-10-01T06:46:22.320Z,13.90
2022-10-01T06:48:51.503Z,14.10
2022-10-01T06:51:40.584Z,14.10
2022-10-01T06:54:10.413Z,14.20
2022-10-01T06:56:40.945Z,14.20
2022-10-01T06:59:10.027Z,14.20
2022-10-01T07:01:39.374Z,14.00
2022-10-01T07:04:08.673Z,14.00
2022-10-01T07:06:37.724Z,14.00
2022-10-01T07:09:06.903Z,14.00
2022-10-01T07:11:41.688Z,14.10
2022-10-01T07:14:12.345Z,14.10
2022-10-01T07:16:41.589Z,14.20
2022-10-01T07:19:10.817Z,14.20
2022-10-01T07:21:39.890Z,14.10
2022-10-01T07:24:09.058Z,14.10
2022-10-01T07:26:38.106Z,14.10
2022-10-01T07:29:08.790Z,14.00
2022-10-01T07:31:39.542Z,14.10
2022-10-01T07:34:08.684Z,14.00
2022-10-01T07:36:37.935Z,13.90
2022-10-01T07:39:07.071Z,13.80
2022-10-01T07:41:36.715Z,13.90
2022-10-01T07:44:06.262Z,14.00
2022-10-01T07:46:36.015Z,14.10
2022-10-01T07:49:07.092Z,14.10
2022-10-01T07:51:37.009Z,14.30
2022-10-01T07:54:06.977Z,14.40
2022-10-01T07:56:36.395Z,14.50
2022-10-01T07:59:06.113Z,14.60
2022-10-01T08:01:35.585Z,14.50
2022-10-01T08:04:27.137Z,14.50
2022-10-01T08:06:57.370Z,14.80
2022-10-01T08:09:26.489Z,14.80
2022-10-01T08:11:55.849Z,15.30
2022-10-01T08:14:25.512Z,15.80
2022-10-01T08:16:57.061Z,16.30
2022-10-01T08:19:28.050Z,16.60
2022-10-01T08:21:57.148Z,17.00
2022-10-01T08:24:26.507Z,17.40
2022-10-01T08:26:57.915Z,17.70
2022-10-01T08:29:26.986Z,18.00
2022-10-01T08:31:56.453Z,18.30
2022-10-01T08:34:27.200Z,18.50
2022-10-01T08:36:56.436Z,18.60
2022-10-01T08:39:25.476Z,19.00
2022-10-01T08:42:00.669Z,19.60
2022-10-01T08:44:33.586Z,19.90
2022-10-01T08:47:09.626Z,19.90
2022-10-01T08:49:44.606Z,19.10
2022-10-01T08:52:21.637Z,18.70
2022-10-01T08:54:55.395Z,18.30
2022-10-01T08:57:27.266Z,18.50
2022-10-01T08:59:59.716Z,18.30
2022-10-01T09:02:31.266Z,18.00
2022-10-01T09:05:04.689Z,17.90
2022-10-01T09:07:50.237Z,18.00
2022-10-01T09:10:40.627Z,18.20
2022-10-01T09:13:40.805Z,18.30
2022-10-01T09:16:20.156Z,17.80
2022-10-01T09:19:01.686Z,17.30
2022-10-01T09:21:44.926Z,17.10
2022-10-01T09:24:16.835Z,17.00
2022-10-01T09:26:49.786Z,16.80
2022-10-01T09:29:26.325Z,16.70
2022-10-01T09:31:56.535Z,16.60
2022-10-01T09:34:34.166Z,16.60
2022-10-01T09:37:14.966Z,16.80
2022-10-01T09:39:51.517Z,16.80
2022-10-01T09:42:21.416Z,16.70
2022-10-01T09:44:50.855Z,16.60
2022-10-01T09:47:22.299Z,16.60
2022-10-01T09:49:51.726Z,16.60
2022-10-01T09:52:27.300Z,16.50
2022-10-01T09:55:01.115Z,16.30
2022-10-01T09:57:35.516Z,16.30
2022-10-01T10:00:10.305Z,16.10
2022-10-01T10:02:48.413Z,16.00
2022-10-01T10:05:19.715Z,16.10
2022-10-01T10:07:53.482Z,16.00
2022-10-01T10:10:26.766Z,15.90
2022-10-01T10:13:01.497Z,15.80
2022-10-01T10:15:32.819Z,15.70
2022-10-01T10:18:08.515Z,15.60
2022-10-01T10:20:40.617Z,15.50
2022-10-01T10:23:17.625Z,15.40
2022-10-01T10:25:56.465Z,15.40
2022-10-01T10:28:26.311Z,15.30
2022-10-01T10:30:57.497Z,15.20
2022-10-01T10:33:27.830Z,15.20
2022-10-01T10:36:03.687Z,15.20
2022-10-01T10:38:36.376Z,15.20
2022-10-01T10:41:06.488Z,15.20
2022-10-01T10:43:39.116Z,15.10
2022-10-01T10:46:09.922Z,15.00
2022-10-01T10:48:44.997Z,14.80
2022-10-01T10:51:14.305Z,14.80
2022-10-01T10:53:46.253Z,14.60
2022-10-01T10:56:23.215Z,14.60
2022-10-01T10:58:54.025Z,14.60
2022-10-01T11:01:29.883Z,14.70
2022-10-01T11:04:01.768Z,14.70
2022-10-01T11:06:31.884Z,14.70
2022-10-01T11:09:07.409Z,14.80
2022-10-01T11:11:49.996Z,14.80
2022-10-01T11:14:42.284Z,14.80
2022-10-01T11:17:49.497Z,14.80
2022-10-01T11:20:34.177Z,14.90
2022-10-01T11:23:30.063Z,14.90
2022-10-01T11:26:12.766Z,15.10
2022-10-01T11:28:54.469Z,15.20
2022-10-01T11:31:38.424Z,15.20
2022-10-01T11:34:27.969Z,15.30
2022-10-01T11:37:01.716Z,15.60
2022-10-01T11:39:33.957Z,15.80
2022-10-01T11:42:09.448Z,15.90
2022-10-01T11:44:45.327Z,16.00
2022-10-01T11:47:21.225Z,16.00
2022-10-01T11:49:57.405Z,16.10
2022-10-01T11:52:36.725Z,16.00
2022-10-01T11:55:40.059Z,16.00
2022-10-01T11:58:34.457Z,15.90
2022-10-01T12:01:12.367Z,15.90
2022-10-01T12:03:56.537Z,15.70
2022-10-01T12:06:33.775Z,15.50
2022-10-01T12:09:09.558Z,15.70
2022-10-01T12:11:45.189Z,15.80
2022-10-01T12:14:19.977Z,15.70
2022-10-01T12:16:55.406Z,15.40
2022-10-01T12:19:28.457Z,15.10
2022-10-01T12:22:05.463Z,15.40
2022-10-01T12:24:41.566Z,15.60
2022-10-01T12:27:35.334Z,15.70
2022-10-01T12:30:08.101Z,15.70
2022-10-01T12:32:49.216Z,15.80
2022-10-01T12:35:36.015Z,15.80
2022-10-01T12:38:17.720Z,15.80
2022-10-01T12:40:52.586Z,16.00
2022-10-01T12:43:58.669Z,16.20
2022-10-01T12:46:38.104Z,16.40
2022-10-01T12:49:22.542Z,16.00
2022-10-01T12:51:59.457Z,15.80
2022-10-01T12:54:50.066Z,15.60
2022-10-01T12:57:40.814Z,15.70
2022-10-01T13:00:15.003Z,16.00
2022-10-01T13:03:38.512Z,16.30
2022-10-01T13:06:24.182Z,16.50
2022-10-01T13:09:14.164Z,16.40
2022-10-01T13:12:11.597Z,16.20
2022-10-01T13:14:42.460Z,16.30
2022-10-01T13:17:18.743Z,16.40
2022-10-01T13:19:53.734Z,16.40
2022-10-01T13:22:36.078Z,16.20
2022-10-01T13:25:20.942Z,16.20
2022-10-01T13:27:57.207Z,16.30
2022-10-01T13:30:28.094Z,16.30
2022-10-01T13:33:01.181Z,16.40
2022-10-01T13:35:35.848Z,16.20
2022-10-01T13:38:18.129Z,16.20
2022-10-01T13:40:59.205Z,16.20
2022-10-01T13:43:29.233Z,16.20
2022-10-01T13:46:07.724Z,16.10
2022-10-01T13:48:38.563Z,16.00
2022-10-01T13:51:11.065Z,15.80
2022-10-01T13:53:55.267Z,15.70
2022-10-01T13:56:33.112Z,15.70
2022-10-01T13:59:02.912Z,15.80
2022-10-01T14:01:40.825Z,15.90
2022-10-01T14:04:21.438Z,15.80
2022-10-01T14:06:55.155Z,15.70
2022-10-01T14:09:29.893Z,15.50
2022-10-01T14:12:22.569Z,15.50
2022-10-01T14:15:12.525Z,15.50
2022-10-01T14:17:43.610Z,15.60
2022-10-01T14:20:19.608Z,15.60
2022-10-01T14:23:04.635Z,15.50
2022-10-01T14:25:53.652Z,15.50
2022-10-01T14:28:44.036Z,15.30
2022-10-01T14:31:22.851Z,15.20
2022-10-01T14:34:16.996Z,15.10
2022-10-01T14:36:49.979Z,15.00
2022-10-01T14:39:21.533Z,15.10
2022-10-01T14:41:54.389Z,14.90
2022-10-01T14:44:27.083Z,14.80
2022-10-01T14:46:57.870Z,14.60
2022-10-01T14:49:29.190Z,14.60
2022-10-01T14:52:03.420Z,14.60
2022-10-01T14:54:42.110Z,14.60
2022-10-01T14:57:17.987Z,14.60
2022-10-01T14:59:49.843Z,14.60
2022-10-01T15:02:21.816Z,14.70
2022-10-01T15:04:52.641Z,14.70
2022-10-01T15:07:21.888Z,14.70
2022-10-01T15:09:51.568Z,14.50
2022-10-01T15:12:25.018Z,14.40
2022-10-01T15:14:55.881Z,14.40
2022-10-01T15:17:28.210Z,14.30
2022-10-01T15:19:58.818Z,14.30
2022-10-01T15:22:31.827Z,14.30
2022-10-01T15:25:03.783Z,14.40
2022-10-01T15:27:35.413Z,14.30
2022-10-01T15:30:04.969Z,14.30
2022-10-01T15:32:34.714Z,14.30
2022-10-01T15:35:04.245Z,14.10
2022-10-01T15:37:36.297Z,14.10
2022-10-01T15:40:07.696Z,14.10
2022-10-01T15:42:38.934Z,14.00
2022-10-01T15:45:29.167Z,14.00
2022-10-01T15:47:58.409Z,14.00
2022-10-01T15:50:32.695Z,14.00
2022-10-01T15:53:06.932Z,14.00
2022-10-01T15:55:40.452Z,13.90
2022-10-01T15:58:17.549Z,13.70
2022-10-01T16:01:00.522Z,13.80
2022-10-01T16:03:33.812Z,13.80
2022-10-01T16:06:05.520Z,13.80
2022-10-01T16:08:40.777Z,13.70
2022-10-01T16:11:19.604Z,13.80
2022-10-01T16:13:51.397Z,13.70
2022-10-01T16:16:29.208Z,13.70
2022-10-01T16:19:23.185Z,13.80
2022-10-01T16:22:16.064Z,13.80
2022-10-01T16:24:46.996Z,13.70
2022-10-01T16:27:18.341Z,13.80
2022-10-01T16:29:55.451Z,13.80
2022-10-01T16:32:24.482Z,13.80
2022-10-01T16:34:53.775Z,13.70
2022-10-01T16:37:23.085Z,13.60
2022-10-01T16:39:52.083Z,13.60
2022-10-01T16:42:24.696Z,13.60
2022-10-01T16:44:55.171Z,13.50
2022-10-01T16:47:24.221Z,13.50
2022-10-01T16:49:54.004Z,13.50
2022-10-01T16:52:23.281Z,13.50
2022-10-01T16:54:52.331Z,13.40
2022-10-01T16:57:21.380Z,13.40
2022-10-01T16:59:50.652Z,13.40
2022-10-01T17:02:21.066Z,13.40
2022-10-01T17:04:50.255Z,13.30
2022-10-01T17:07:19.218Z,13.40
2022-10-01T17:09:49.091Z,13.30
2022-10-01T17:12:18.166Z,13.50
2022-10-01T17:14:47.330Z,13.40
2022-10-01T17:17:16.382Z,13.40
2022-10-01T17:19:46.842Z,13.30
2022-10-01T17:22:16.714Z,13.30
2022-10-01T17:24:45.751Z,13.30
2022-10-01T17:27:14.662Z,13.20
2022-10-01T17:29:43.994Z,13.20
2022-10-01T17:32:13.675Z,13.10
2022-10-01T17:34:42.921Z,13.20
2022-10-01T17:37:13.666Z,13.20
2022-10-01T17:39:43.287Z,13.20
2022-10-01T17:42:15.243Z,13.20
2022-10-01T17:44:44.379Z,13.20
2022-10-01T17:47:13.669Z,13.30
2022-10-01T17:49:43.994Z,13.30
2022-10-01T17:52:14.783Z,13.30
2022-10-01T17:54:43.932Z,13.30
2022-10-01T17:57:13.164Z,13.30
2022-10-01T17:59:42.157Z,13.30
2022-10-01T18:02:36.675Z,13.30
2022-10-01T18:05:04.209Z,13.40
2022-10-01T18:07:37.125Z,13.30
2022-10-01T18:10:06.832Z,13.30
2022-10-01T18:12:36.393Z,13.30
2022-10-01T18:15:05.838Z,13.30
2022-10-01T18:17:36.642Z,13.30
2022-10-01T18:20:06.631Z,13.20
2022-10-01T18:22:38.154Z,13.30
2022-10-01T18:25:07.576Z,13.30
2022-10-01T18:27:36.529Z,13.30
2022-10-01T18:30:05.940Z,13.30
2022-10-01T18:32:40.951Z,13.40
2022-10-01T18:35:23.260Z,13.40
2022-10-01T18:37:57.261Z,13.30
2022-10-01T18:40:30.341Z,13.40
2022-10-01T18:43:08.734Z,13.40
2022-10-01T18:45:55.565Z,13.30
2022-10-01T18:48:47.640Z,13.20
2022-10-01T18:51:23.581Z,13.20
2022-10-01T18:54:07.085Z,13.20
2022-10-01T18:56:39.081Z,13.20
2022-10-01T18:59:46.601Z,13.20
2022-10-01T19:02:41.505Z,13.20
2022-10-01T19:06:01.362Z,13.10
2022-10-01T19:08:46.821Z,13.10
2022-10-01T19:11:22.542Z,13.10
2022-10-01T19:14:17.361Z,13.00
2022-10-01T19:16:52.466Z,13.10
2022-10-01T19:19:32.740Z,13.00
2022-10-01T19:22:03.671Z,13.00
2022-10-01T19:24:46.184Z,12.90
2022-10-01T19:27:31.647Z,12.90
2022-10-01T19:30:06.371Z,12.70
2022-10-01T19:32:41.865Z,12.60
2022-10-01T19:35:20.295Z,12.70
2022-10-01T19:37:53.635Z,12.70
2022-10-01T19:40:30.417Z,12.70
2022-10-01T19:43:08.079Z,12.70
2022-10-01T19:45:46.061Z,12.70
2022-10-01T19:48:21.741Z,12.70
2022-10-01T19:50:57.210Z,12.60
2022-10-01T19:53:30.081Z,12.60
2022-10-01T19:56:01.455Z,12.60
2022-10-01T19:58:34.381Z,12.50
2022-10-01T20:01:05.263Z,12.60
2022-10-01T20:03:39.212Z,12.60
2022-10-01T20:06:14.073Z,12.60
2022-10-01T20:08:48.422Z,12.60
2022-10-01T20:11:24.912Z,12.60
2022-10-01T20:14:38.189Z,12.70
2022-10-01T20:17:16.554Z,12.70
2022-10-01T20:19:54.254Z,12.70
2022-10-01T20:22:28.981Z,12.70
2022-10-01T20:25:08.633Z,12.70
2022-10-01T20:27:49.269Z,12.70
2022-10-01T20:30:21.622Z,12.80
2022-10-01T20:32:58.381Z,12.80
2022-10-01T20:35:33.574Z,12.70
2022-10-01T20:38:08.342Z,12.80
2022-10-01T20:40:41.427Z,12.80
2022-10-01T20:43:17.588Z,12.80
2022-10-01T20:45:51.991Z,12.80
2022-10-01T20:48:24.163Z,12.80
2022-10-01T20:50:55.629Z,12.80
2022-10-01T20:53:34.191Z,12.80
2022-10-01T20:56:10.993Z,12.70
2022-10-01T20:58:44.986Z,12.70
2022-10-01T21:01:20.799Z,12.70
2022-10-01T21:03:55.272Z,12.70
2022-10-01T21:06:29.512Z,12.70
2022-10-01T21:09:04.760Z,12.80
2022-10-01T21:11:37.304Z,12.80
2022-10-01T21:14:14.079Z,12.80
2022-10-01T21:17:07.560Z,12.70
2022-10-01T21:19:51.551Z,12.80
2022-10-01T21:22:36.423Z,12.70
2022-10-01T21:25:14.976Z,12.80
2022-10-01T21:28:10.667Z,12.80
2022-10-01T21:30:54.013Z,12.70
2022-10-01T21:33:27.619Z,12.70
2022-10-01T21:36:03.358Z,12.80
2022-10-01T21:38:39.775Z,12.70
2022-10-01T21:41:33.374Z,12.70
2022-10-01T21:44:40.751Z,12.70
2022-10-01T21:47:15.385Z,12.70
2022-10-01T21:49:55.821Z,12.70
2022-10-01T21:52:36.007Z,12.70
2022-10-01T21:55:30.394Z,12.70
2022-10-01T21:58:12.353Z,12.60
2022-10-01T22:00:42.047Z,12.70
2022-10-01T22:03:19.339Z,12.70
2022-10-01T22:05:56.372Z,12.70
2022-10-01T22:08:52.618Z,12.60
2022-10-01T22:11:25.813Z,12.70
2022-10-01T22:13:59.275Z,12.60
2022-10-01T22:16:33.542Z,12.60
2022-10-01T22:19:08.136Z,12.60
2022-10-01T22:21:42.717Z,12.50
2022-10-01T22:24:15.575Z,12.50
2022-10-01T22:26:48.755Z,12.50
2022-10-01T22:29:26.077Z,12.50
2022-10-01T22:32:00.411Z,12.40
2022-10-01T22:34:34.648Z,12.40
2022-10-01T22:37:09.815Z,12.40
2022-10-01T22:39:45.379Z,12.40
2022-10-01T22:42:19.115Z,12.40
2022-10-01T22:44:48.888Z,12.40
2022-10-01T22:47:50.343Z,12.30
2022-10-01T22:50:33.017Z,12.30
2022-10-01T22:53:15.779Z,12.30
2022-10-01T22:55:52.885Z,12.20
2022-10-01T22:58:39.693Z,12.20
2022-10-01T23:01:17.350Z,12.20
2022-10-01T23:04:06.518Z,12.10
2022-10-01T23:06:42.527Z,12.10
2022-10-01T23:09:19.262Z,12.00
2022-10-01T23:11:57.929Z,12.00
2022-10-01T23:14:54.911Z,12.00
2022-10-01T23:17:29.591Z,12.00
2022-10-01T23:20:10.446Z,12.00
2022-10-01T23:22:52.702Z,12.00
2022-10-01T23:25:35.906Z,11.90
2022-10-01T23:28:16.464Z,11.90
2022-10-01T23:30:59.566Z,11.90
2022-10-01T23:33:54.383Z,11.90
2022-10-01T23:36:37.234Z,11.90
2022-10-01T23:39:29.707Z,11.90
2022-10-01T23:42:05.277Z,11.90
2022-10-01T23:44:40.353Z,11.90
2022-10-01T23:47:16.271Z,11.90
2022-10-01T23:49:51.270Z,11.90
2022-10-01T23:52:33.231Z,11.90
2022-10-01T23:55:19.403Z,11.90
2022-10-01T23:57:53.906Z,11.90
